createdAt,value
2022-11-30T00:00:32.956Z,4.40
2022-11-30T00:02:59.718Z,4.40
2022-11-30T00:05:26.555Z,4.50
2022-11-30T00:07:54.513Z,4.40
2022-11-30T00:10:22.240Z,4.40
2022-11-30T00:12:49.679Z,4.40
2022-11-30T00:15:17.422Z,4.40
2022-11-30T00:17:44.640Z,4.40
2022-11-30T00:20:12.076Z,4.30
2022-11-30T00:22:38.732Z,4.30
2022-11-30T00:25:05.518Z,4.30
2022-11-30T00:27:32.584Z,4.30
2022-11-30T00:29:59.643Z,4.30
2022-11-30T00:32:27.201Z,4.30
2022-11-30T00:34:53.981Z,4.40
2022-11-30T00:37:20.697Z,4.30
2022-11-30T00:39:47.360Z,4.40
2022-11-30T00:42:14.125Z,4.40
2022-11-30T00:44:40.842Z,4.40
2022-11-30T00:47:07.589Z,4.50
2022-11-30T00:49:34.451Z,4.50
2022-11-30T00:52:01.583Z,4.50
2022-11-30T00:54:28.245Z,4.50
2022-11-30T00:56:54.913Z,4.50
2022-11-30T00:59:21.638Z,4.50
2022-11-30T01:01:48.320Z,4.50
2022-11-30T01:04:15.038Z,4.50
2022-11-30T01:06:43.478Z,4.40
2022-11-30T01:09:10.148Z,4.50
2022-11-30T01:11:36.817Z,4.50
2022-11-30T01:14:03.554Z,4.50
2022-11-30T01:16:31.705Z,4.50
2022-11-30T01:18:58.424Z,4.50
2022-11-30T01:21:26.128Z,4.50
2022-11-30T01:23:52.903Z,4.50
2022-11-30T01:26:19.834Z,4.40
2022-11-30T01:28:53.148Z,4.40
2022-11-30T01:31:20.146Z,4.40
2022-11-30T01:33:54.088Z,4.40
2022-11-30T01:36:27.994Z,4.40
2022-11-30T01:38:56.306Z,4.40
2022-11-30T01:41:27.704Z,4.30
2022-11-30T01:44:19.486Z,4.30
2022-11-30T01:46:53.112Z,4.30
2022-11-30T01:49:27.794Z,4.30
2022-11-30T01:51:59.103Z,4.20
2022-11-30T01:54:29.195Z,4.20
2022-11-30T01:56:57.483Z,4.10
2022-11-30T01:59:24.304Z,4.10
2022-11-30T02:01:51.739Z,4.10
2022-11-30T02:04:32.467Z,4.10
2022-11-30T02:06:59.356Z,4.00
2022-11-30T02:09:26.469Z,4.00
2022-11-30T02:11:53.292Z,4.00
2022-11-30T02:14:26.490Z,3.90
2022-11-30T02:16:58.881Z,3.90
2022-11-30T02:20:22.965Z,3.90
2022-11-30T02:23:12.736Z,3.90
2022-11-30T02:26:03.358Z,3.90
2022-11-30T02:28:54.475Z,3.90
2022-11-30T02:31:23.716Z,4.00
2022-11-30T02:33:50.449Z,4.00
2022-11-30T02:36:17.153Z,3.90
2022-11-30T02:38:46.441Z,3.90
2022-11-30T02:41:13.112Z,3.90
2022-11-30T02:43:39.813Z,4.00
2022-11-30T02:46:14.823Z,4.00
2022-11-30T02:48:53.495Z,4.10
2022-11-30T02:51:21.751Z,4.10
2022-11-30T02:53:48.659Z,4.10
2022-11-30T02:56:15.456Z,4.10
2022-11-30T02:58:42.137Z,4.20
2022-11-30T03:01:08.926Z,4.20
2022-11-30T03:03:35.669Z,4.30
2022-11-30T03:06:02.352Z,4.30
2022-11-30T03:08:29.000Z,4.30
2022-11-30T03:10:55.737Z,4.40
2022-11-30T03:13:22.400Z,4.40
2022-11-30T03:15:49.345Z,4.40
2022-11-30T03:18:16.024Z,4.40
2022-11-30T03:20:42.886Z,4.40
2022-11-30T03:23:09.580Z,4.40
2022-11-30T03:25:36.280Z,4.30
2022-11-30T03:28:02.933Z,4.30
2022-11-30T03:30:29.577Z,4.30
2022-11-30T03:32:56.306Z,4.20
2022-11-30T03:35:23.005Z,4.20
2022-11-30T03:37:49.717Z,4.20
2022-11-30T03:40:16.382Z,4.20
2022-11-30T03:42:43.078Z,4.10
2022-11-30T03:45:10.092Z,4.20
2022-11-30T03:47:37.238Z,4.20
2022-11-30T03:50:04.379Z,4.20
2022-11-30T03:52:31.042Z,4.30
2022-11-30T03:54:57.702Z,4.30
2022-11-30T03:57:24.386Z,4.40
2022-11-30T03:59:51.062Z,4.40
2022-11-30T04:02:17.751Z,4.40
2022-11-30T04:04:44.583Z,4.50
2022-11-30T04:07:11.508Z,4.50
2022-11-30T04:09:38.168Z,4.50
2022-11-30T04:12:04.896Z,4.60
2022-11-30T04:14:31.606Z,4.70
2022-11-30T04:16:58.248Z,4.70
2022-11-30T04:19:24.909Z,4.70
2022-11-30T04:21:51.561Z,4.60
2022-11-30T04:24:18.223Z,4.70
2022-11-30T04:26:46.161Z,4.70
2022-11-30T04:29:12.911Z,4.80
2022-11-30T04:31:39.636Z,4.80
2022-11-30T04:34:06.401Z,4.80
2022-11-30T04:36:33.081Z,4.80
2022-11-30T04:38:59.740Z,4.80
2022-11-30T04:41:26.452Z,4.90
2022-11-30T04:43:53.136Z,4.80
2022-11-30T04:46:19.840Z,4.90
2022-11-30T04:48:46.527Z,4.90
2022-11-30T04:51:13.196Z,4.90
2022-11-30T04:53:39.857Z,4.90
2022-11-30T04:56:07.825Z,4.90
2022-11-30T04:58:34.551Z,4.90
2022-11-30T05:01:01.204Z,4.90
2022-11-30T05:03:27.872Z,4.90
2022-11-30T05:05:54.552Z,4.90
2022-11-30T05:08:21.217Z,4.90
2022-11-30T05:10:53.266Z,4.90
2022-11-30T05:13:20.936Z,4.90
2022-11-30T05:15:47.776Z,4.90
2022-11-30T05:18:15.753Z,4.90
2022-11-30T05:20:46.341Z,4.90
2022-11-30T05:23:13.005Z,4.90
2022-11-30T05:25:39.669Z,5.00
2022-11-30T05:28:06.327Z,5.00
2022-11-30T05:30:32.971Z,5.00
2022-11-30T05:32:59.636Z,5.00
2022-11-30T05:35:26.298Z,5.00
2022-11-30T05:37:53.081Z,5.10
2022-11-30T05:40:19.788Z,5.10
2022-11-30T05:42:46.487Z,5.20
2022-11-30T05:45:13.140Z,5.20
2022-11-30T05:47:40.049Z,5.20
2022-11-30T05:50:07.444Z,5.20
2022-11-30T05:52:34.125Z,5.20
2022-11-30T05:55:00.832Z,5.20
2022-11-30T05:57:27.496Z,5.30
2022-11-30T05:59:54.264Z,5.30
2022-11-30T06:02:26.607Z,5.30
2022-11-30T06:04:54.779Z,5.30
2022-11-30T06:07:21.453Z,5.30
2022-11-30T06:09:48.122Z,5.30
2022-11-30T06:12:14.776Z,5.30
2022-11-30T06:14:41.441Z,5.30
2022-11-30T06:17:08.488Z,5.30
2022-11-30T06:19:35.199Z,5.30
2022-11-30T06:22:01.854Z,5.30
2022-11-30T06:24:28.508Z,5.30
2022-11-30T06:26:55.157Z,5.30
2022-11-30T06:29:21.839Z,5.40
2022-11-30T06:31:48.537Z,5.40
2022-11-30T06:34:15.257Z,5.40
2022-11-30T06:36:41.928Z,5.40
2022-11-30T06:39:11.354Z,5.40
2022-11-30T06:41:38.029Z,5.40
2022-11-30T06:44:08.780Z,5.40
2022-11-30T06:46:35.465Z,5.50
2022-11-30T06:49:02.224Z,5.50
2022-11-30T06:51:28.876Z,5.50
2022-11-30T06:53:55.569Z,5.50
2022-11-30T06:56:22.240Z,5.50
2022-11-30T06:58:48.940Z,5.50
2022-11-30T07:01:15.806Z,5.50
2022-11-30T07:03:42.672Z,5.50
2022-11-30T07:06:13.395Z,5.50
2022-11-30T07:08:40.253Z,5.50
2022-11-30T07:11:07.386Z,5.50
2022-11-30T07:13:34.249Z,5.50
2022-11-30T07:16:05.260Z,5.60
2022-11-30T07:18:32.801Z,5.60
2022-11-30T07:21:00.923Z,5.60
2022-11-30T07:23:50.790Z,5.60
2022-11-30T07:26:20.993Z,5.70
2022-11-30T07:28:49.747Z,5.60
2022-11-30T07:31:36.655Z,5.70
2022-11-30T07:34:07.566Z,5.60
2022-11-30T07:36:34.669Z,5.60
2022-11-30T07:39:01.405Z,5.70
2022-11-30T07:41:28.189Z,5.70
2022-11-30T07:43:55.000Z,5.70
2022-11-30T07:46:21.810Z,5.70
2022-11-30T07:48:48.504Z,5.70
2022-11-30T07:51:17.292Z,5.70
2022-11-30T07:53:44.021Z,5.80
2022-11-30T07:56:15.663Z,5.80
2022-11-30T07:58:42.626Z,5.80
2022-11-30T08:01:11.241Z,5.80
2022-11-30T08:03:38.169Z,5.80
2022-11-30T08:06:09.953Z,5.80
2022-11-30T08:08:41.145Z,5.80
2022-11-30T08:11:08.492Z,5.90
2022-11-30T08:13:35.504Z,5.90
2022-11-30T08:16:03.083Z,5.90
2022-11-30T08:18:29.844Z,5.90
2022-11-30T08:21:00.801Z,6.00
2022-11-30T08:23:31.818Z,6.00
2022-11-30T08:26:06.311Z,6.10
2022-11-30T08:28:36.151Z,6.10
2022-11-30T08:31:05.138Z,6.10
2022-11-30T08:33:32.410Z,6.10
2022-11-30T08:36:15.856Z,6.20
2022-11-30T08:38:43.212Z,6.20
2022-11-30T08:41:11.001Z,6.20
2022-11-30T08:43:37.669Z,6.30
2022-11-30T08:46:21.184Z,6.30
2022-11-30T08:49:02.340Z,6.30
2022-11-30T08:52:14.660Z,6.30
2022-11-30T08:54:27.297Z,6.30
2022-11-30T08:56:54.030Z,6.30
2022-11-30T08:59:23.769Z,6.30
2022-11-30T09:01:50.447Z,6.30
2022-11-30T09:04:17.149Z,6.30
2022-11-30T09:06:43.904Z,6.30
2022-11-30T09:09:10.573Z,6.40
2022-11-30T09:11:37.257Z,6.40
2022-11-30T09:14:08.896Z,6.50
2022-11-30T09:16:35.821Z,6.40
2022-11-30T09:19:02.521Z,6.40
2022-11-30T09:21:29.454Z,6.50
2022-11-30T09:23:56.583Z,6.50
2022-11-30T09:26:25.138Z,6.50
2022-11-30T09:28:52.388Z,6.60
2022-11-30T09:31:20.817Z,6.50
2022-11-30T09:33:47.998Z,6.60
2022-11-30T09:36:16.623Z,6.60
2022-11-30T09:38:43.453Z,6.50
2022-11-30T09:41:28.452Z,6.60
2022-11-30T09:44:25.296Z,6.60
2022-11-30T09:46:59.046Z,6.70
2022-11-30T09:49:27.197Z,6.80
2022-11-30T09:51:54.629Z,6.80
2022-11-30T09:55:10.030Z,6.90
2022-11-30T09:58:40.409Z,6.90
2022-11-30T10:01:13.666Z,6.90
2022-11-30T10:03:40.439Z,7.00
2022-11-30T10:06:09.726Z,7.10
2022-11-30T10:09:23.039Z,7.20
2022-11-30T10:11:56.872Z,7.30
2022-11-30T10:14:38.134Z,7.30
2022-11-30T10:17:29.796Z,7.30
2022-11-30T10:20:15.082Z,7.30
2022-11-30T10:23:26.521Z,7.20
2022-11-30T10:25:59.190Z,7.30
2022-11-30T10:28:49.073Z,7.20
2022-11-30T10:31:16.534Z,7.20
2022-11-30T10:33:53.028Z,7.20
2022-11-30T10:36:22.481Z,7.20
2022-11-30T10:38:51.261Z,7.20
2022-11-30T10:41:28.769Z,7.10
2022-11-30T10:44:12.510Z,7.10
2022-11-30T10:46:45.800Z,7.10
2022-11-30T10:49:23.360Z,7.10
2022-11-30T10:51:53.962Z,7.10
2022-11-30T10:54:21.599Z,7.10
2022-11-30T10:56:48.416Z,7.10
2022-11-30T10:59:19.439Z,7.10
2022-11-30T11:01:46.264Z,7.10
2022-11-30T11:04:13.153Z,7.20
2022-11-30T11:06:59.939Z,7.20
2022-11-30T11:09:38.547Z,7.30
2022-11-30T11:12:26.314Z,7.30
2022-11-30T11:15:23.032Z,7.30
2022-11-30T11:17:49.929Z,7.30
2022-11-30T11:20:31.408Z,7.40
2022-11-30T11:22:58.151Z,7.40
2022-11-30T11:25:32.605Z,7.40
2022-11-30T11:28:03.584Z,7.40
2022-11-30T11:30:31.001Z,7.50
2022-11-30T11:32:58.821Z,7.50
2022-11-30T11:35:40.331Z,7.50
2022-11-30T11:38:26.232Z,7.60
2022-11-30T11:41:01.339Z,7.60
2022-11-30T11:43:32.224Z,7.70
2022-11-30T11:46:10.121Z,7.80
2022-11-30T11:48:41.932Z,7.80
2022-11-30T11:51:10.082Z,7.90
2022-11-30T11:53:44.873Z,7.90
2022-11-30T11:56:27.199Z,7.90
2022-11-30T11:59:03.257Z,7.90
2022-11-30T12:02:07.680Z,7.90
2022-11-30T12:04:47.669Z,7.90
2022-11-30T12:07:24.209Z,8.00
2022-11-30T12:10:35.654Z,7.90
2022-11-30T12:12:59.001Z,7.90
2022-11-30T12:15:41.619Z,7.80
2022-11-30T12:18:23.611Z,7.80
2022-11-30T12:20:58.776Z,7.80
2022-11-30T12:23:41.569Z,7.80
2022-11-30T12:26:18.238Z,7.70
2022-11-30T12:29:23.339Z,7.80
2022-11-30T12:32:07.588Z,7.70
2022-11-30T12:34:48.840Z,7.80
2022-11-30T12:37:26.764Z,7.80
2022-11-30T12:40:24.979Z,7.80
2022-11-30T12:43:00.615Z,7.80
2022-11-30T12:45:30.265Z,7.80
2022-11-30T12:48:04.947Z,7.80
2022-11-30T12:50:37.815Z,7.80
2022-11-30T12:53:26.604Z,7.90
2022-11-30T12:56:22.385Z,7.90
2022-11-30T12:59:10.713Z,8.00
2022-11-30T13:02:07.750Z,8.00
2022-11-30T13:04:42.712Z,8.00
2022-11-30T13:07:24.828Z,8.00
2022-11-30T13:10:00.814Z,8.00
2022-11-30T13:12:37.688Z,8.00
2022-11-30T13:15:15.570Z,8.00
2022-11-30T13:17:43.015Z,8.00
2022-11-30T13:20:30.882Z,8.10
2022-11-30T13:23:24.679Z,8.10
2022-11-30T13:26:38.581Z,8.00
2022-11-30T13:29:42.867Z,8.10
2022-11-30T13:32:34.007Z,8.10
2022-11-30T13:35:27.911Z,8.00
2022-11-30T13:38:34.692Z,8.00
2022-11-30T13:40:54.771Z,8.00
2022-11-30T13:43:21.675Z,8.00
2022-11-30T13:45:48.403Z,8.00
2022-11-30T13:48:38.027Z,8.00
2022-11-30T13:51:04.930Z,8.00
2022-11-30T13:53:35.699Z,8.00
2022-11-30T13:56:07.823Z,8.00
2022-11-30T13:58:35.047Z,8.00
2022-11-30T14:04:15.769Z,7.90
2022-11-30T14:06:42.428Z,7.90
2022-11-30T14:09:34.340Z,7.90
2022-11-30T14:12:32.732Z,7.90
2022-11-30T14:15:00.114Z,7.90
2022-11-30T14:17:27.952Z,7.90
2022-11-30T14:20:19.364Z,7.90
2022-11-30T14:22:46.082Z,7.90
2022-11-30T14:25:14.360Z,7.80
2022-11-30T14:27:41.057Z,7.80
2022-11-30T14:30:17.671Z,7.80
2022-11-30T14:32:47.176Z,7.80
2022-11-30T14:35:18.283Z,7.80
2022-11-30T14:37:55.797Z,7.70
2022-11-30T14:40:24.366Z,7.80
2022-11-30T14:42:56.611Z,7.70
2022-11-30T14:45:25.695Z,7.80
2022-11-30T14:48:06.539Z,7.70
2022-11-30T14:50:33.414Z,7.70
2022-11-30T14:53:12.249Z,7.70
2022-11-30T14:55:40.923Z,7.70
2022-11-30T14:58:26.481Z,7.70
2022-11-30T15:00:53.359Z,7.70
2022-11-30T15:03:33.589Z,7.70
2022-11-30T15:06:04.110Z,7.70
2022-11-30T15:08:35.962Z,7.70
2022-11-30T15:11:08.001Z,7.60
2022-11-30T15:13:34.811Z,7.60
2022-11-30T15:16:01.589Z,7.60
2022-11-30T15:18:28.251Z,7.60
2022-11-30T15:21:00.120Z,7.60
2022-11-30T15:23:26.895Z,7.60
2022-11-30T15:26:02.836Z,7.60
2022-11-30T15:28:34.333Z,7.60
2022-11-30T15:31:02.322Z,7.60
2022-11-30T15:33:37.777Z,7.60
2022-11-30T15:36:22.858Z,7.50
2022-11-30T15:38:51.906Z,7.40
2022-11-30T15:41:23.372Z,7.40
2022-11-30T15:43:54.921Z,7.30
2022-11-30T15:46:45.780Z,7.30
2022-11-30T15:49:22.626Z,7.30
2022-11-30T15:52:09.879Z,7.20
2022-11-30T15:54:52.517Z,7.20
2022-11-30T15:57:19.811Z,7.20
2022-11-30T16:00:13.885Z,7.20
2022-11-30T16:02:40.633Z,7.10
2022-11-30T16:05:14.787Z,7.10
2022-11-30T16:07:59.961Z,7.10
2022-11-30T16:10:37.903Z,7.10
2022-11-30T16:13:05.144Z,7.10
2022-11-30T16:15:36.060Z,7.10
2022-11-30T16:18:18.709Z,7.00
2022-11-30T16:20:47.165Z,7.00
2022-11-30T16:23:14.987Z,6.90
2022-11-30T16:25:42.573Z,6.90
2022-11-30T16:28:18.922Z,6.80
2022-11-30T16:30:48.748Z,6.90
2022-11-30T16:33:17.096Z,6.80
2022-11-30T16:35:49.994Z,6.80
2022-11-30T16:38:17.022Z,6.80
2022-11-30T16:40:43.683Z,6.70
2022-11-30T16:43:13.713Z,6.70
2022-11-30T16:45:40.884Z,6.70
2022-11-30T16:48:07.645Z,6.70
2022-11-30T16:50:34.901Z,6.70
2022-11-30T16:53:04.807Z,6.70
2022-11-30T16:55:34.595Z,6.70
2022-11-30T16:58:01.552Z,6.60
2022-11-30T17:00:28.314Z,6.60
2022-11-30T17:03:10.113Z,6.60
2022-11-30T17:05:37.068Z,6.60
2022-11-30T17:08:03.891Z,6.60
2022-11-30T17:10:30.650Z,6.60
2022-11-30T17:12:57.321Z,6.60
2022-11-30T17:15:24.301Z,6.50
2022-11-30T17:17:51.237Z,6.60
2022-11-30T17:20:18.040Z,6.50
2022-11-30T17:22:45.221Z,6.50
2022-11-30T17:25:17.892Z,6.50
2022-11-30T17:27:44.866Z,6.40
2022-11-30T17:30:12.890Z,6.50
2022-11-30T17:32:39.562Z,6.40
2022-11-30T17:35:06.674Z,6.40
2022-11-30T17:37:33.380Z,6.40
2022-11-30T17:40:00.068Z,6.40
2022-11-30T17:42:27.252Z,6.40
2022-11-30T17:44:53.940Z,6.50
2022-11-30T17:47:22.112Z,6.40
2022-11-30T17:49:49.485Z,6.40
2022-11-30T17:52:16.299Z,6.40
2022-11-30T17:54:43.052Z,6.40
2022-11-30T17:57:09.739Z,6.40
2022-11-30T17:59:36.401Z,6.40
2022-11-30T18:02:03.104Z,6.30
2022-11-30T18:04:29.947Z,6.40
2022-11-30T18:06:57.140Z,6.40
2022-11-30T18:09:24.228Z,6.40
2022-11-30T18:11:50.968Z,6.40
2022-11-30T18:14:17.644Z,6.30
2022-11-30T18:16:44.403Z,6.40
2022-11-30T18:19:14.909Z,6.40
2022-11-30T18:21:42.205Z,6.40
2022-11-30T18:24:09.904Z,6.40
2022-11-30T18:26:36.661Z,6.40
2022-11-30T18:29:03.452Z,6.40
2022-11-30T18:31:30.507Z,6.40
2022-11-30T18:33:58.420Z,6.40
2022-11-30T18:36:25.341Z,6.30
2022-11-30T18:38:52.018Z,6.40
2022-11-30T18:41:18.719Z,6.30
2022-11-30T18:43:45.445Z,6.30
2022-11-30T18:46:12.698Z,6.40
2022-11-30T18:48:39.953Z,6.40
2022-11-30T18:51:10.670Z,6.40
2022-11-30T18:53:37.346Z,6.40
2022-11-30T18:56:12.975Z,6.30
2022-11-30T18:58:40.535Z,6.40
2022-11-30T19:01:09.074Z,6.40
2022-11-30T19:03:36.624Z,6.40
2022-11-30T19:06:07.168Z,6.30
2022-11-30T19:08:43.350Z,6.40
2022-11-30T19:11:10.313Z,6.40
2022-11-30T19:13:37.009Z,6.40
2022-11-30T19:16:05.372Z,6.30
2022-11-30T19:18:32.129Z,6.30
2022-11-30T19:20:58.812Z,6.40
2022-11-30T19:23:25.521Z,6.30
2022-11-30T19:25:52.260Z,6.30
2022-11-30T19:28:19.058Z,6.30
2022-11-30T19:30:47.722Z,6.30
2022-11-30T19:33:14.439Z,6.30
2022-11-30T19:35:41.151Z,6.30
2022-11-30T19:38:07.823Z,6.30
2022-11-30T19:40:34.603Z,6.30
2022-11-30T19:43:01.343Z,6.30
2022-11-30T19:45:28.023Z,6.30
2022-11-30T19:47:54.927Z,6.30
2022-11-30T19:50:22.169Z,6.30
2022-11-30T19:52:50.366Z,6.30
2022-11-30T19:55:17.322Z,6.30
2022-11-30T19:57:44.946Z,6.30
2022-11-30T20:00:12.579Z,6.30
2022-11-30T20:02:43.033Z,6.30
2022-11-30T20:05:09.808Z,6.30
2022-11-30T20:07:37.006Z,6.30
2022-11-30T20:10:04.817Z,6.30
2022-11-30T20:12:31.541Z,6.30
2022-11-30T20:14:58.198Z,6.30
2022-11-30T20:17:24.943Z,6.30
2022-11-30T20:19:51.661Z,6.30
2022-11-30T20:22:19.193Z,6.30
2022-11-30T20:24:46.146Z,6.30
2022-11-30T20:27:13.615Z,6.30
2022-11-30T20:29:40.917Z,6.30
2022-11-30T20:32:07.577Z,6.30
2022-11-30T20:34:39.724Z,6.30
2022-11-30T20:37:09.152Z,6.30
2022-11-30T20:39:36.603Z,6.30
2022-11-30T20:42:05.574Z,6.40
2022-11-30T20:44:32.309Z,6.30
2022-11-30T20:46:58.963Z,6.30
2022-11-30T20:49:25.763Z,6.40
2022-11-30T20:51:52.830Z,6.40
2022-11-30T20:54:19.624Z,6.40
2022-11-30T20:56:50.084Z,6.40
2022-11-30T20:59:19.441Z,6.40
2022-11-30T21:01:46.450Z,6.40
2022-11-30T21:04:13.174Z,6.40
2022-11-30T21:06:46.130Z,6.40
2022-11-30T21:09:14.417Z,6.40
2022-11-30T21:11:42.116Z,6.40
2022-11-30T21:14:09.108Z,6.40
2022-11-30T21:16:36.125Z,6.40
2022-11-30T21:19:03.168Z,6.40
2022-11-30T21:21:31.958Z,6.40
2022-11-30T21:24:00.436Z,6.40
2022-11-30T21:26:29.423Z,6.40
2022-11-30T21:29:02.493Z,6.30
2022-11-30T21:31:29.367Z,6.40
2022-11-30T21:33:56.740Z,6.30
2022-11-30T21:36:23.552Z,6.30
2022-11-30T21:38:58.294Z,6.30
2022-11-30T21:41:31.782Z,6.40
2022-11-30T21:43:58.667Z,6.40
2022-11-30T21:46:25.395Z,6.30
2022-11-30T21:48:52.805Z,6.30
2022-11-30T21:51:21.289Z,6.30
2022-11-30T21:53:49.678Z,6.40
2022-11-30T21:56:18.797Z,6.40
2022-11-30T21:58:46.330Z,6.40
2022-11-30T22:01:15.394Z,6.30
2022-11-30T22:03:42.185Z,6.30
2022-11-30T22:06:14.045Z,6.30
2022-11-30T22:08:41.135Z,6.30
2022-11-30T22:11:12.609Z,6.30
2022-11-30T22:13:39.704Z,6.30
2022-11-30T22:16:11.139Z,6.30
2022-11-30T22:18:38.670Z,6.30
2022-11-30T22:21:15.818Z,6.30
2022-11-30T22:23:43.925Z,6.30
2022-11-30T22:26:20.610Z,6.30
2022-11-30T22:28:49.326Z,6.30
2022-11-30T22:31:17.196Z,6.40
2022-11-30T22:33:44.078Z,6.30
2022-11-30T22:36:15.692Z,6.30
2022-11-30T22:38:42.721Z,6.30
2022-11-30T22:41:11.162Z,6.30
2022-11-30T22:43:38.156Z,6.30
2022-11-30T22:46:09.535Z,6.30
2022-11-30T22:48:36.335Z,6.30
2022-11-30T22:51:08.469Z,6.30
2022-11-30T22:53:36.956Z,6.30
2022-11-30T22:56:08.237Z,6.30
2022-11-30T22:58:35.311Z,6.30
2022-11-30T23:01:10.436Z,6.30
2022-11-30T23:03:37.343Z,6.30
2022-11-30T23:06:05.294Z,6.30
2022-11-30T23:08:32.181Z,6.30
2022-11-30T23:11:00.044Z,6.30
2022-11-30T23:13:27.464Z,6.30
2022-11-30T23:15:57.391Z,6.30
2022-11-30T23:18:24.354Z,6.30
2022-11-30T23:20:50.999Z,6.30
2022-11-30T23:23:18.397Z,6.30
2022-11-30T23:25:45.226Z,6.30
2022-11-30T23:28:12.159Z,6.30
2022-11-30T23:30:38.821Z,6.20
2022-11-30T23:33:06.463Z,6.20
2022-11-30T23:35:33.163Z,6.20
2022-11-30T23:38:00.791Z,6.30
2022-11-30T23:40:27.515Z,6.30
2022-11-30T23:42:54.296Z,6.30
2022-11-30T23:45:21.155Z,6.20
2022-11-30T23:47:48.225Z,6.20
2022-11-30T23:50:15.236Z,6.20
2022-11-30T23:52:42.049Z,6.20
2022-11-30T23:55:09.762Z,6.20
2022-11-30T23:57:36.403Z,6.20
